Time;durP1;ratioP1;P1;durP2;ratioP2;P2;SDS_P1;SDS_P2;PMS_P1;PMS_P2;Temp;Humidity;BMP_temperature;BMP_pressure;BME280_temperature;BME280_humidity;BME280_pressure;Samples;Min_cycle;Max_cycle;Signal;HPM_P1;HPM_P2
2023/08/14 00:00:09;;;;;;;5.15;1.90;;;;;;;;;;610427;23;1457;-78
2023/08/14 00:00:31;;;;;;;4.32;1.70;;;;;;;;;;613629;23;1923;-78
2023/08/14 00:00:50;;;;;;;4.40;1.88;;;;;;;;;;613053;23;1468;-78
2023/08/14 00:01:14;;;;;;;5.43;2.05;;;;;;;;;;616150;23;1352;-78
2023/08/14 00:01:36;;;;;;;6.40;1.92;;;;;;;;;;612705;23;1422;-78
2023/08/14 00:01:55;;;;;;;4.85;1.80;;;;;;;;;;613717;23;1463;-78
2023/08/14 00:02:14;;;;;;;4.35;1.80;;;;;;;;;;612948;23;1328;-78
2023/08/14 00:02:30;;;;;;;5.25;2.08;;;;;;;;;;612742;23;1350;-79
2023/08/14 00:03:12;;;;;;;5.13;2.20;;;;;;;;;;612363;23;1397;-78
2023/08/14 00:03:35;;;;;;;5.93;1.80;;;;;;;;;;613141;23;868;-78
2023/08/14 00:03:56;;;;;;;3.58;1.70;;;;;;;;;;617336;23;1375;-78
2023/08/14 00:04:18;;;;;;;3.70;1.63;;;;;;;;;;616504;23;1548;-78
2023/08/14 00:04:34;;;;;;;5.07;1.80;;;;;;;;;;610881;23;1491;-78
2023/08/14 00:04:53;;;;;;;3.55;1.70;;;;;;;;;;613978;23;1300;-78
2023/08/14 00:05:09;;;;;;;4.97;1.73;;;;;;;;;;616262;23;1301;-78
2023/08/14 00:05:26;;;;;;;5.53;1.70;;;;;;;;;;613252;23;1465;-78
2023/08/14 00:05:45;;;;;;;3.53;1.55;;;;;;;;;;610647;23;1301;-78
2023/08/14 00:06:13;;;;;;;2.90;1.67;;;;;;;;;;613287;23;1501;-78
2023/08/14 00:06:32;;;;;;;2.55;1.63;;;;;;;;;;610328;23;1555;-77
2023/08/14 00:06:48;;;;;;;5.63;1.83;;;;;;;;;;613384;23;1355;-78
2023/08/14 00:07:13;;;;;;;5.15;1.70;;;;;;;;;;607890;24;1339;-78
2023/08/14 00:07:35;;;;;;;2.70;1.42;;;;;;;;;;607949;23;1260;-78
2023/08/14 00:07:54;;;;;;;6.30;1.90;;;;;;;;;;611639;23;1340;-77
2023/08/14 00:08:10;;;;;;;6.43;2.00;;;;;;;;;;614112;23;1343;-78
2023/08/14 00:08:26;;;;;;;6.63;2.10;;;;;;;;;;607395;23;1348;-78
2023/08/14 00:08:45;;;;;;;5.55;1.90;;;;;;;;;;610282;23;1222;-78
2023/08/14 00:09:09;;;;;;;4.85;1.70;;;;;;;;;;613422;23;1166;-78
2023/08/14 00:09:26;;;;;;;4.93;1.50;;;;;;;;;;610695;23;1487;-77
2023/08/14 00:09:45;;;;;;;5.25;1.70;;;;;;;;;;613764;23;1332;-78
2023/08/14 00:10:07;;;;;;;4.60;1.75;;;;;;;;;;610583;23;1471;-78
2023/08/14 00:10:43;;;;;;;4.93;1.70;;;;;;;;;;610826;23;1422;-78
2023/08/14 00:10:59;;;;;;;5.85;1.70;;;;;;;;;;612914;23;1488;-78
2023/08/14 00:11:24;;;;;;;4.70;1.80;;;;;;;;;;611429;23;1354;-78
2023/08/14 00:11:43;;;;;;;3.47;1.75;;;;;;;;;;611030;23;1612;-78
2023/08/14 00:12:04;;;;;;;2.90;1.67;;;;;;;;;;608566;24;1467;-77
2023/08/14 00:12:23;;;;;;;5.15;1.88;;;;;;;;;;608102;23;1372;-79
2023/08/14 00:12:42;;;;;;;3.83;1.70;;;;;;;;;;605807;24;1282;-78
2023/08/14 00:13:09;;;;;;;3.72;1.67;;;;;;;;;;608604;23;1437;-78
2023/08/14 00:13:54;;;;;;;3.80;1.73;;;;;;;;;;608274;23;1494;-78
2023/08/14 00:14:15;;;;;;;4.93;1.77;;;;;;;;;;613544;23;906;-78
2023/08/14 00:14:31;;;;;;;4.93;1.80;;;;;;;;;;611993;23;1257;-78
2023/08/14 00:14:50;;;;;;;4.72;1.80;;;;;;;;;;610984;23;1414;-78
2023/08/14 00:15:07;;;;;;;5.43;1.80;;;;;;;;;;610970;23;900;-78
2023/08/14 00:15:29;;;;;;;5.28;1.73;;;;;;;;;;610857;23;1375;-78
2023/08/14 00:15:48;;;;;;;4.22;1.50;;;;;;;;;;609921;23;1522;-78
2023/08/14 00:16:09;;;;;;;3.05;1.40;;;;;;;;;;610904;23;1331;-78
2023/08/14 00:16:43;;;;;;;3.50;1.50;;;;;;;;;;612405;23;1356;-78
2023/08/14 00:17:06;;;;;;;6.32;1.80;;;;;;;;;;617015;23;1355;-78
2023/08/14 00:17:22;;;;;;;5.03;1.83;;;;;;;;;;614721;23;1354;-78
2023/08/14 00:17:41;;;;;;;3.90;1.70;;;;;;;;;;614240;23;1329;-77
2023/08/14 00:18:08;;;;;;;3.63;1.70;;;;;;;;;;612760;23;1552;-78
2023/08/14 00:18:30;;;;;;;3.35;1.48;;;;;;;;;;614192;23;1257;-77
2023/08/14 00:18:49;;;;;;;3.70;1.65;;;;;;;;;;610271;23;1392;-79
2023/08/14 00:19:10;;;;;;;4.97;1.90;;;;;;;;;;616792;23;1270;-77
2023/08/14 00:19:26;;;;;;;5.25;1.90;;;;;;;;;;616726;23;1558;-78
2023/08/14 00:19:51;;;;;;;3.83;1.83;;;;;;;;;;616078;23;1424;-78
2023/08/14 00:20:10;;;;;;;5.40;1.75;;;;;;;;;;619136;23;1228;-77
2023/08/14 00:20:33;;;;;;;4.18;1.67;;;;;;;;;;616762;23;1981;-78
2023/08/14 00:20:58;;;;;;;3.97;1.80;;;;;;;;;;613967;23;911;-78
2023/08/14 00:21:20;;;;;;;6.15;1.90;;;;;;;;;;613998;23;1495;-78
2023/08/14 00:21:42;;;;;;;5.78;1.90;;;;;;;;;;612101;23;1328;-78
2023/08/14 00:22:06;;;;;;;3.40;1.73;;;;;;;;;;613417;23;1550;-78
2023/08/14 00:22:25;;;;;;;4.13;2.00;;;;;;;;;;613396;23;1515;-78
2023/08/14 00:22:43;;;;;;;4.97;1.95;;;;;;;;;;615354;23;1295;-78
2023/08/14 00:23:02;;;;;;;5.22;1.83;;;;;;;;;;613340;23;1479;-78
2023/08/14 00:23:24;;;;;;;6.38;2.05;;;;;;;;;;613637;23;1435;-77
2023/08/14 00:23:40;;;;;;;5.38;1.90;;;;;;;;;;613289;23;1324;-78
2023/08/14 00:23:59;;;;;;;5.00;1.90;;;;;;;;;;613307;23;1407;-78
2023/08/14 00:24:15;;;;;;;3.85;1.80;;;;;;;;;;614828;23;788;-78
2023/08/14 00:24:34;;;;;;;5.53;2.10;;;;;;;;;;616568;23;1356;-78
2023/08/14 00:24:52;;;;;;;6.50;2.10;;;;;;;;;;617492;23;1342;-78
2023/08/14 00:25:11;;;;;;;5.22;1.80;;;;;;;;;;620011;23;1160;-78
2023/08/14 00:25:31;;;;;;;4.53;1.63;;;;;;;;;;617449;23;1562;-78
2023/08/14 00:25:53;;;;;;;2.97;1.60;;;;;;;;;;615731;23;1313;-77
2023/08/14 00:26:19;;;;;;;3.92;1.80;;;;;;;;;;613894;23;1403;-78
2023/08/14 00:26:35;;;;;;;3.85;1.92;;;;;;;;;;613962;23;888;-77
2023/08/14 00:26:57;;;;;;;4.13;1.90;;;;;;;;;;614361;23;1456;-78
2023/08/14 00:27:18;;;;;;;3.83;1.63;;;;;;;;;;614623;23;1025;-79
2023/08/14 00:27:37;;;;;;;2.75;1.70;;;;;;;;;;615047;23;1584;-78
2023/08/14 00:28:07;;;;;;;3.63;1.70;;;;;;;;;;618430;23;1095;-78
2023/08/14 00:28:26;;;;;;;4.18;1.85;;;;;;;;;;615783;23;1539;-78
2023/08/14 00:28:50;;;;;;;4.28;1.83;;;;;;;;;;612756;23;864;-78
2023/08/14 00:29:17;;;;;;;4.15;1.80;;;;;;;;;;612155;23;1416;-78
2023/08/14 00:29:36;;;;;;;4.93;1.73;;;;;;;;;;613830;23;920;-78
2023/08/14 00:29:55;;;;;;;3.85;1.75;;;;;;;;;;614494;23;1391;-78
2023/08/14 00:30:13;;;;;;;5.05;1.80;;;;;;;;;;612685;23;1595;-78
2023/08/14 00:30:29;;;;;;;5.97;1.75;;;;;;;;;;615041;23;1353;-78
2023/08/14 00:30:48;;;;;;;5.82;1.80;;;;;;;;;;615437;23;1339;-78
2023/08/14 00:31:06;;;;;;;6.55;1.90;;;;;;;;;;613847;23;1388;-78
2023/08/14 00:31:28;;;;;;;6.00;1.80;;;;;;;;;;614435;23;1576;-78
2023/08/14 00:31:46;;;;;;;3.40;1.67;;;;;;;;;;617178;23;1285;-78
2023/08/14 00:32:05;;;;;;;2.92;1.60;;;;;;;;;;617881;23;1057;-78
2023/08/14 00:32:32;;;;;;;3.40;1.70;;;;;;;;;;615306;23;1356;-78
2023/08/14 00:32:51;;;;;;;4.50;1.65;;;;;;;;;;618350;23;1252;-79
2023/08/14 00:33:13;;;;;;;3.47;1.60;;;;;;;;;;617992;23;1366;-79
2023/08/14 00:33:42;;;;;;;2.78;1.67;;;;;;;;;;618706;23;791;-78
2023/08/14 00:34:03;;;;;;;4.60;1.80;;;;;;;;;;620904;23;1336;-78
2023/08/14 00:34:22;;;;;;;4.57;1.70;;;;;;;;;;624158;23;1482;-77
2023/08/14 00:34:41;;;;;;;5.80;1.80;;;;;;;;;;620325;23;1242;-78
2023/08/14 00:35:05;;;;;;;5.70;1.88;;;;;;;;;;618094;23;1284;-78
2023/08/14 00:35:33;;;;;;;3.53;1.70;;;;;;;;;;614506;23;1478;-78
2023/08/14 00:35:49;;;;;;;5.13;1.80;;;;;;;;;;611906;23;1325;-77
2023/08/14 00:36:07;;;;;;;4.83;1.90;;;;;;;;;;612263;23;785;-78
2023/08/14 00:36:23;;;;;;;4.22;1.70;;;;;;;;;;610122;23;1477;-78
2023/08/14 00:36:39;;;;;;;4.97;1.70;;;;;;;;;;612421;23;1450;-78
2023/08/14 00:37:00;;;;;;;4.00;1.60;;;;;;;;;;612101;23;1271;-78
2023/08/14 00:37:31;;;;;;;3.92;1.60;;;;;;;;;;611741;23;1411;-78
2023/08/14 00:37:54;;;;;;;5.65;1.90;;;;;;;;;;613279;23;1488;-78
2023/08/14 00:38:10;;;;;;;6.07;1.98;;;;;;;;;;613677;23;1377;-78
2023/08/14 00:38:26;;;;;;;3.78;1.60;;;;;;;;;;613067;23;1492;-77
2023/08/14 00:38:41;;;;;;;4.88;1.70;;;;;;;;;;610411;23;1556;-77
2023/08/14 00:39:00;;;;;;;5.80;2.00;;;;;;;;;;616606;23;1283;-78
2023/08/14 00:39:21;;;;;;;4.95;1.90;;;;;;;;;;616163;23;1554;-77
2023/08/14 00:39:38;;;;;;;6.07;1.67;;;;;;;;;;616525;23;1470;-78
2023/08/14 00:39:54;;;;;;;5.68;1.70;;;;;;;;;;619484;23;1103;-77
2023/08/14 00:40:15;;;;;;;4.47;1.70;;;;;;;;;;619236;23;866;-77
2023/08/14 00:40:31;;;;;;;2.85;1.50;;;;;;;;;;621068;23;1941;-78
2023/08/14 00:40:47;;;;;;;3.38;1.58;;;;;;;;;;616642;23;1627;-78
2023/08/14 00:41:11;;;;;;;3.72;1.80;;;;;;;;;;616938;23;1331;-78
2023/08/14 00:41:30;;;;;;;4.10;1.77;;;;;;;;;;614035;23;1217;-78
2023/08/14 00:41:47;;;;;;;3.87;1.73;;;;;;;;;;614746;23;1220;-78
2023/08/14 00:42:08;;;;;;;3.08;1.65;;;;;;;;;;616607;23;871;-78
2023/08/14 00:42:36;;;;;;;2.67;1.50;;;;;;;;;;613044;23;1477;-78
2023/08/14 00:42:58;;;;;;;4.57;1.67;;;;;;;;;;614908;23;1532;-78
2023/08/14 00:43:14;;;;;;;3.38;1.58;;;;;;;;;;613778;23;1462;-78
2023/08/14 00:43:33;;;;;;;3.42;1.50;;;;;;;;;;613913;23;1270;-78
2023/08/14 00:43:52;;;;;;;5.05;1.75;;;;;;;;;;614327;23;1319;-77
2023/08/14 00:44:11;;;;;;;5.25;1.95;;;;;;;;;;613293;23;1157;-77
2023/08/14 00:44:29;;;;;;;3.35;1.65;;;;;;;;;;616415;23;1194;-78
2023/08/14 00:44:57;;;;;;;3.88;1.60;;;;;;;;;;613624;23;1318;-78
2023/08/14 00:45:24;;;;;;;2.77;1.50;;;;;;;;;;613285;23;1483;-77
2023/08/14 00:45:44;;;;;;;3.78;1.90;;;;;;;;;;614731;23;1395;-77
2023/08/14 00:46:03;;;;;;;3.60;1.70;;;;;;;;;;613810;23;1495;-78
2023/08/14 00:46:21;;;;;;;3.78;1.45;;;;;;;;;;613726;23;1254;-77
2023/08/14 00:46:40;;;;;;;2.90;1.48;;;;;;;;;;615366;23;1591;-78
2023/08/14 00:47:02;;;;;;;4.18;1.60;;;;;;;;;;613864;23;1462;-78
2023/08/14 00:47:25;;;;;;;4.53;1.60;;;;;;;;;;613809;23;1499;-78
2023/08/14 00:47:47;;;;;;;3.97;1.60;;;;;;;;;;614760;23;1419;-77
2023/08/14 00:48:10;;;;;;;3.75;1.50;;;;;;;;;;613968;23;1277;-78
2023/08/14 00:48:27;;;;;;;4.00;1.63;;;;;;;;;;611662;23;1360;-77
2023/08/14 00:48:43;;;;;;;3.95;1.65;;;;;;;;;;613880;23;1168;-77
2023/08/14 00:49:02;;;;;;;4.30;1.77;;;;;;;;;;616560;23;847;-77
2023/08/14 00:49:18;;;;;;;4.07;1.90;;;;;;;;;;616123;23;1486;-78
2023/08/14 00:49:34;;;;;;;5.63;2.00;;;;;;;;;;613793;23;1317;-78
2023/08/14 00:49:53;;;;;;;5.47;1.77;;;;;;;;;;610818;23;1282;-77
2023/08/14 00:50:15;;;;;;;3.17;1.60;;;;;;;;;;613898;23;967;-77
2023/08/14 00:50:31;;;;;;;3.42;1.65;;;;;;;;;;614182;23;1511;-77
2023/08/14 00:50:50;;;;;;;3.92;1.50;;;;;;;;;;613997;23;1272;-77
2023/08/14 00:51:06;;;;;;;3.97;1.70;;;;;;;;;;614806;23;1247;-77
2023/08/14 00:51:23;;;;;;;3.15;1.60;;;;;;;;;;617862;23;896;-78
2023/08/14 00:51:45;;;;;;;3.97;1.70;;;;;;;;;;617982;23;1304;-78
2023/08/14 00:52:04;;;;;;;5.95;1.90;;;;;;;;;;617169;23;1245;-78
2023/08/14 00:52:22;;;;;;;5.63;1.88;;;;;;;;;;619427;23;1491;-77
2023/08/14 00:52:48;;;;;;;4.03;1.73;;;;;;;;;;617169;23;1248;-77
2023/08/14 00:53:14;;;;;;;4.43;1.90;;;;;;;;;;617272;23;1502;-77
2023/08/14 00:53:34;;;;;;;5.15;1.98;;;;;;;;;;618255;23;1401;-77
2023/08/14 00:53:54;;;;;;;4.43;1.80;;;;;;;;;;617426;23;1299;-77
2023/08/14 00:54:13;;;;;;;4.40;1.98;;;;;;;;;;615291;23;1043;-78
2023/08/14 00:54:53;;;;;;;3.90;1.88;;;;;;;;;;614945;23;1403;-78
2023/08/14 00:55:18;;;;;;;4.68;1.70;;;;;;;;;;614259;23;1495;-78
2023/08/14 00:55:37;;;;;;;5.13;1.85;;;;;;;;;;614553;23;1154;-78
2023/08/14 00:55:54;;;;;;;6.50;1.80;;;;;;;;;;618077;23;1014;-78
2023/08/14 00:56:11;;;;;;;5.20;1.85;;;;;;;;;;620529;23;1387;-77
2023/08/14 00:56:33;;;;;;;5.32;1.75;;;;;;;;;;620486;23;1165;-77
2023/08/14 00:56:49;;;;;;;3.72;1.63;;;;;;;;;;617840;23;1363;-77
2023/08/14 00:57:08;;;;;;;3.15;1.60;;;;;;;;;;618033;23;1227;-78
2023/08/14 00:57:30;;;;;;;4.20;1.65;;;;;;;;;;618762;23;1610;-78
2023/08/14 00:57:56;;;;;;;4.47;1.80;;;;;;;;;;615103;23;1297;-78
2023/08/14 00:58:21;;;;;;;4.05;1.60;;;;;;;;;;615353;23;1271;-77
2023/08/14 00:58:44;;;;;;;4.03;1.60;;;;;;;;;;618614;23;1265;-77
2023/08/14 00:59:00;;;;;;;4.63;1.70;;;;;;;;;;619851;23;1280;-78
2023/08/14 00:59:32;;;;;;;3.13;1.55;;;;;;;;;;620675;23;1225;-77
2023/08/14 00:59:54;;;;;;;4.13;1.60;;;;;;;;;;618249;23;1276;-78
2023/08/14 01:00:29;;;;;;;3.28;1.60;;;;;;;;;;619055;23;1542;-77
2023/08/14 01:00:48;;;;;;;3.60;1.63;;;;;;;;;;618732;23;1344;-77
2023/08/14 01:01:07;;;;;;;5.03;1.80;;;;;;;;;;619413;23;840;-78
2023/08/14 01:01:26;;;;;;;5.60;1.90;;;;;;;;;;619693;23;1315;-78
2023/08/14 01:01:54;;;;;;;5.90;1.80;;;;;;;;;;617717;23;1281;-77
2023/08/14 01:02:26;;;;;;;6.47;1.83;;;;;;;;;;618535;23;1531;-77
2023/08/14 01:02:50;;;;;;;5.05;1.60;;;;;;;;;;615840;23;1350;-78
2023/08/14 01:03:35;;;;;;;5.35;1.80;;;;;;;;;;612776;23;1487;-77
2023/08/14 01:03:54;;;;;;;4.93;1.70;;;;;;;;;;607560;24;1404;-77
2023/08/14 01:04:13;;;;;;;4.47;1.80;;;;;;;;;;609747;24;1267;-77
2023/08/14 01:04:29;;;;;;;4.30;1.83;;;;;;;;;;609967;24;1420;-78
2023/08/14 01:04:53;;;;;;;6.53;1.60;;;;;;;;;;618063;23;1176;-78
2023/08/14 01:05:10;;;;;;;5.78;1.75;;;;;;;;;;618303;23;1442;-78
2023/08/14 01:05:32;;;;;;;5.38;1.80;;;;;;;;;;615708;23;1364;-78
2023/08/14 01:05:53;;;;;;;5.80;1.90;;;;;;;;;;615993;23;1484;-78
2023/08/14 01:06:12;;;;;;;4.38;1.73;;;;;;;;;;613554;23;1305;-79
2023/08/14 01:06:37;;;;;;;4.15;1.60;;;;;;;;;;616673;23;1366;-78
2023/08/14 01:07:01;;;;;;;4.55;1.60;;;;;;;;;;615563;23;1328;-78
2023/08/14 01:07:29;;;;;;;;;;;;;;;;;;;;;
2023/08/14 01:07:54;;;;;;;3.40;1.67;;;;;;;;;;624100;23;1036;-78
2023/08/14 01:08:20;;;;;;;4.25;1.90;;;;;;;;;;620409;23;1609;-78
2023/08/14 01:08:46;;;;;;;3.95;1.77;;;;;;;;;;618654;23;1611;-78
2023/08/14 01:09:11;;;;;;;4.72;1.75;;;;;;;;;;618898;23;1449;-79
2023/08/14 01:09:33;;;;;;;3.80;1.70;;;;;;;;;;618343;23;1238;-78
2023/08/14 01:09:59;;;;;;;4.60;1.80;;;;;;;;;;615406;23;1541;-78
2023/08/14 01:10:24;;;;;;;3.13;1.60;;;;;;;;;;615011;23;1247;-79
2023/08/14 01:11:13;;;;;;;5.05;1.77;;;;;;;;;;616410;23;1412;-77
2023/08/14 01:11:43;;;;;;;4.75;1.60;;;;;;;;;;616515;23;1415;-79
2023/08/14 01:12:37;;;;;;;4.10;1.67;;;;;;;;;;620937;23;1534;-78
2023/08/14 01:13:06;;;;;;;4.05;1.70;;;;;;;;;;619638;23;1323;-77
2023/08/14 01:13:51;;;;;;;2.80;1.45;;;;;;;;;;616331;23;1436;-78
2023/08/14 01:14:22;;;;;;;5.20;1.73;;;;;;;;;;618196;23;1445;-78
2023/08/14 01:14:40;;;;;;;4.60;1.50;;;;;;;;;;618001;23;1494;-78
2023/08/14 01:15:15;;;;;;;3.75;1.60;;;;;;;;;;618044;23;1469;-78
2023/08/14 01:15:38;;;;;;;4.15;1.60;;;;;;;;;;616774;23;1382;-78
2023/08/14 01:16:04;;;;;;;4.18;1.60;;;;;;;;;;614940;23;1450;-77
2023/08/14 01:16:27;;;;;;;4.35;1.70;;;;;;;;;;612482;23;1524;-79
2023/08/14 01:16:49;;;;;;;3.83;1.60;;;;;;;;;;615897;23;888;-78
2023/08/14 01:17:18;;;;;;;4.75;1.70;;;;;;;;;;616472;23;1261;-78
2023/08/14 01:17:42;;;;;;;6.13;1.80;;;;;;;;;;619442;23;1238;-78
2023/08/14 01:18:09;;;;;;;5.55;1.65;;;;;;;;;;622986;23;935;-79
2023/08/14 01:18:41;;;;;;;6.25;1.70;;;;;;;;;;625989;23;1557;-78
2023/08/14 01:19:14;;;;;;;3.95;1.73;;;;;;;;;;621952;23;1545;-78
2023/08/14 01:19:34;;;;;;;4.72;1.60;;;;;;;;;;619483;23;1551;-78
2023/08/14 01:19:56;;;;;;;5.05;1.80;;;;;;;;;;619480;23;1391;-78
2023/08/14 01:20:17;;;;;;;3.22;1.70;;;;;;;;;;620504;23;1242;-78
2023/08/14 01:20:37;;;;;;;4.22;1.75;;;;;;;;;;623187;23;1966;-79
2023/08/14 01:21:15;;;;;;;6.07;1.90;;;;;;;;;;624557;23;1455;-78
2023/08/14 01:22:28;;;;;;;3.65;1.80;;;;;;;;;;625153;23;1397;-78
2023/08/14 01:23:29;;;;;;;4.20;1.70;;;;;;;;;;609570;23;1344;-78
2023/08/14 01:24:35;;;;;;;3.03;1.60;;;;;;;;;;608980;23;1595;-78
2023/08/14 01:25:12;;;;;;;4.50;1.60;;;;;;;;;;609378;23;1270;-78
2023/08/14 01:25:40;;;;;;;4.05;1.77;;;;;;;;;;607721;24;1152;-78
2023/08/14 01:26:05;;;;;;;2.72;1.40;;;;;;;;;;606543;24;1303;-77
2023/08/14 01:26:28;;;;;;;1.70;1.23;;;;;;;;;;606476;24;1441;-78
2023/08/14 01:26:50;;;;;;;2.95;1.67;;;;;;;;;;608065;24;1230;-78
2023/08/14 01:27:10;;;;;;;4.60;1.80;;;;;;;;;;606223;24;1553;-78
2023/08/14 01:27:26;;;;;;;5.13;1.70;;;;;;;;;;606513;23;1435;-78
2023/08/14 01:27:49;;;;;;;4.05;1.65;;;;;;;;;;607322;23;1277;-77
2023/08/14 01:28:08;;;;;;;3.45;1.73;;;;;;;;;;607163;24;1376;-78
2023/08/14 01:28:28;;;;;;;5.30;1.88;;;;;;;;;;607826;23;1328;-78
2023/08/14 01:28:47;;;;;;;6.53;1.83;;;;;;;;;;617533;23;769;-78
2023/08/14 01:29:06;;;;;;;9.15;1.80;;;;;;;;;;616645;23;1352;-78
2023/08/14 01:29:31;;;;;;;9.00;1.80;;;;;;;;;;617025;23;1488;-78
2023/08/14 01:29:57;;;;;;;6.47;1.85;;;;;;;;;;617384;23;901;-78
2023/08/14 01:30:13;;;;;;;4.55;1.80;;;;;;;;;;618287;23;1438;-78
2023/08/14 01:30:32;;;;;;;3.92;1.73;;;;;;;;;;615575;23;1478;-78
2023/08/14 01:30:59;;;;;;;4.20;1.75;;;;;;;;;;611994;23;1281;-78
2023/08/14 01:31:18;;;;;;;2.80;1.60;;;;;;;;;;620478;23;1402;-78
2023/08/14 01:31:37;;;;;;;3.53;1.80;;;;;;;;;;618738;23;1190;-78
2023/08/14 01:31:56;;;;;;;4.13;1.70;;;;;;;;;;617852;23;1351;-78
2023/08/14 01:32:12;;;;;;;4.55;1.70;;;;;;;;;;614162;23;1293;-78
2023/08/14 01:32:28;;;;;;;3.90;1.67;;;;;;;;;;617329;23;1228;-78
2023/08/14 01:32:45;;;;;;;3.08;1.60;;;;;;;;;;616168;23;1296;-78
2023/08/14 01:33:06;;;;;;;5.38;1.67;;;;;;;;;;619129;23;848;-78
2023/08/14 01:33:22;;;;;;;7.93;1.70;;;;;;;;;;619453;23;1407;-79
2023/08/14 01:33:44;;;;;;;5.50;1.70;;;;;;;;;;618156;23;1541;-79
2023/08/14 01:34:10;;;;;;;3.33;1.77;;;;;;;;;;618412;23;1441;-78
2023/08/14 01:34:47;;;;;;;4.57;1.85;;;;;;;;;;618453;23;1524;-77
2023/08/14 01:35:07;;;;;;;4.07;1.60;;;;;;;;;;615851;23;1388;-78
2023/08/14 01:35:29;;;;;;;4.13;1.60;;;;;;;;;;618354;23;1548;-78
2023/08/14 01:35:54;;;;;;;4.38;1.77;;;;;;;;;;621845;23;1177;-78
2023/08/14 01:36:23;;;;;;;7.07;1.90;;;;;;;;;;615935;23;1295;-78
2023/08/14 01:36:50;;;;;;;4.13;1.85;;;;;;;;;;614764;23;1514;-78
2023/08/14 01:37:31;;;;;;;4.82;1.63;;;;;;;;;;620682;23;1418;-77
2023/08/14 01:38:07;;;;;;;3.97;1.63;;;;;;;;;;618805;23;1420;-78
2023/08/14 01:38:52;;;;;;;4.15;1.90;;;;;;;;;;620315;23;1219;-77
2023/08/14 01:39:18;;;;;;;4.68;1.60;;;;;;;;;;621773;23;1553;-77
2023/08/14 01:39:49;;;;;;;4.30;1.58;;;;;;;;;;617030;23;1100;-77
2023/08/14 01:40:40;;;;;;;3.95;1.77;;;;;;;;;;618496;23;1311;-77
2023/08/14 01:41:20;;;;;;;4.30;1.85;;;;;;;;;;620112;23;1516;-78
2023/08/14 01:42:03;;;;;;;4.35;1.80;;;;;;;;;;620836;23;1368;-77
2023/08/14 01:42:32;;;;;;;4.70;1.83;;;;;;;;;;617264;23;1513;-78
2023/08/14 01:42:54;;;;;;;4.90;1.92;;;;;;;;;;615132;23;1366;-77
2023/08/14 01:43:26;;;;;;;5.05;2.00;;;;;;;;;;613739;23;1294;-78
2023/08/14 01:43:48;;;;;;;5.22;1.90;;;;;;;;;;613881;23;1439;-77
2023/08/14 01:44:10;;;;;;;3.95;1.80;;;;;;;;;;610477;23;1400;-77
2023/08/14 01:44:31;;;;;;;4.75;1.80;;;;;;;;;;610399;23;1380;-77
2023/08/14 01:44:49;;;;;;;4.82;1.80;;;;;;;;;;609683;23;1405;-76
2023/08/14 01:45:12;;;;;;;4.72;1.80;;;;;;;;;;610424;23;1510;-77
2023/08/14 01:45:48;;;;;;;5.32;2.00;;;;;;;;;;608679;24;1495;-77
2023/08/14 01:46:09;;;;;;;5.32;1.90;;;;;;;;;;611064;23;1478;-77
2023/08/14 01:46:35;;;;;;;3.53;1.60;;;;;;;;;;614303;23;888;-77
2023/08/14 01:46:54;;;;;;;4.38;1.90;;;;;;;;;;614633;23;1343;-77
2023/08/14 01:47:16;;;;;;;6.13;2.10;;;;;;;;;;617325;23;1495;-77
2023/08/14 01:47:34;;;;;;;5.00;1.98;;;;;;;;;;613339;23;1168;-77
2023/08/14 01:47:59;;;;;;;5.57;1.85;;;;;;;;;;610716;23;1472;-77
2023/08/14 01:48:15;;;;;;;4.97;2.00;;;;;;;;;;610738;23;1619;-77
2023/08/14 01:48:33;;;;;;;4.32;1.83;;;;;;;;;;610571;23;1341;-77
2023/08/14 01:48:57;;;;;;;4.50;1.70;;;;;;;;;;613298;23;1488;-77
2023/08/14 01:49:20;;;;;;;4.22;1.80;;;;;;;;;;613001;23;1424;-77
2023/08/14 01:49:40;;;;;;;5.28;2.03;;;;;;;;;;615910;23;1537;-77
2023/08/14 01:49:57;;;;;;;3.90;1.73;;;;;;;;;;613010;23;1290;-78
2023/08/14 01:50:21;;;;;;;4.47;1.70;;;;;;;;;;613406;23;1603;-77
2023/08/14 01:50:38;;;;;;;6.43;1.92;;;;;;;;;;616464;23;1292;-77
2023/08/14 01:50:59;;;;;;;4.97;1.60;;;;;;;;;;614215;23;1326;-77
2023/08/14 01:51:18;;;;;;;3.58;1.60;;;;;;;;;;614001;23;1522;-77
2023/08/14 01:51:38;;;;;;;7.38;1.90;;;;;;;;;;614139;23;1627;-77
2023/08/14 01:52:02;;;;;;;4.93;1.90;;;;;;;;;;616857;23;1361;-77
2023/08/14 01:52:23;;;;;;;7.07;2.00;;;;;;;;;;616503;23;1131;-77
2023/08/14 01:52:39;;;;;;;7.10;1.80;;;;;;;;;;616910;23;1554;-77
2023/08/14 01:52:56;;;;;;;5.53;1.60;;;;;;;;;;619192;23;1459;-77
2023/08/14 01:53:24;;;;;;;4.97;1.80;;;;;;;;;;616087;23;1350;-77
2023/08/14 01:53:40;;;;;;;3.33;1.80;;;;;;;;;;616964;23;871;-77
2023/08/14 01:53:57;;;;;;;3.35;1.80;;;;;;;;;;616182;23;1060;-78
2023/08/14 01:54:18;;;;;;;4.15;1.80;;;;;;;;;;618663;23;1279;-78
2023/08/14 01:54:40;;;;;;;5.25;1.90;;;;;;;;;;614744;23;1621;-77
2023/08/14 01:55:02;;;;;;;5.60;1.80;;;;;;;;;;616087;23;1349;-77
2023/08/14 01:55:22;;;;;;;4.55;1.80;;;;;;;;;;616326;23;1459;-77
2023/08/14 01:55:43;;;;;;;4.55;1.90;;;;;;;;;;618977;23;1252;-77
2023/08/14 01:56:09;;;;;;;5.03;1.70;;;;;;;;;;617158;23;1471;-78
2023/08/14 01:56:35;;;;;;;5.68;1.80;;;;;;;;;;615252;23;1360;-77
2023/08/14 01:57:01;;;;;;;4.93;1.70;;;;;;;;;;615968;23;1380;-78
2023/08/14 01:57:25;;;;;;;4.78;1.73;;;;;;;;;;619668;23;1260;-77
2023/08/14 01:57:45;;;;;;;4.83;1.60;;;;;;;;;;614456;23;1315;-77
2023/08/14 01:58:06;;;;;;;5.18;1.60;;;;;;;;;;617076;23;1135;-78
2023/08/14 01:58:23;;;;;;;4.63;1.58;;;;;;;;;;614535;23;1600;-77
2023/08/14 01:58:51;;;;;;;4.68;1.58;;;;;;;;;;612105;23;1358;-78
2023/08/14 01:59:12;;;;;;;3.78;1.65;;;;;;;;;;612347;23;1448;-79
2023/08/14 01:59:57;;;;;;;4.57;1.80;;;;;;;;;;611865;23;1060;-77
2023/08/14 02:00:14;;;;;;;4.28;1.70;;;;;;;;;;614270;23;1244;-78
2023/08/14 02:00:42;;;;;;;4.30;1.80;;;;;;;;;;621638;23;1970;-78
2023/08/14 02:01:00;;;;;;;4.32;1.80;;;;;;;;;;621740;23;1486;-78
2023/08/14 02:01:22;;;;;;;5.80;1.60;;;;;;;;;;620332;23;1518;-78
2023/08/14 02:01:54;;;;;;;;;;;;;;;;;;;;;
2023/08/14 02:02:19;;;;;;;4.20;1.73;;;;;;;;;;615060;23;753;-78
2023/08/14 02:02:38;;;;;;;4.38;1.90;;;;;;;;;;617755;23;1407;-78
2023/08/14 02:02:56;;;;;;;5.00;1.80;;;;;;;;;;617276;23;1187;-79
2023/08/14 02:03:33;;;;;;;4.30;1.80;;;;;;;;;;620225;23;852;-79
2023/08/14 02:03:51;;;;;;;6.30;1.80;;;;;;;;;;621303;23;1507;-78
2023/08/14 02:04:08;;;;;;;5.68;1.80;;;;;;;;;;618148;23;1340;-78
2023/08/14 02:04:27;;;;;;;5.38;1.90;;;;;;;;;;616450;23;1355;-78
2023/08/14 02:04:42;;;;;;;5.22;1.92;;;;;;;;;;618912;23;1480;-79
2023/08/14 02:04:59;;;;;;;5.83;2.00;;;;;;;;;;618662;23;1251;-78
2023/08/14 02:05:15;;;;;;;5.40;2.00;;;;;;;;;;618232;23;834;-78
2023/08/14 02:05:34;;;;;;;3.67;1.70;;;;;;;;;;618085;23;1232;-78
2023/08/14 02:05:52;;;;;;;4.97;1.80;;;;;;;;;;618538;23;1154;-77
2023/08/14 02:06:17;;;;;;;4.82;1.83;;;;;;;;;;621737;23;1415;-78
2023/08/14 02:06:32;;;;;;;4.93;1.90;;;;;;;;;;621323;23;1427;-77
2023/08/14 02:06:48;;;;;;;5.22;1.85;;;;;;;;;;619129;23;1276;-78
2023/08/14 02:07:09;;;;;;;4.88;1.75;;;;;;;;;;618513;23;1565;-78
2023/08/14 02:07:28;;;;;;;5.30;2.00;;;;;;;;;;618342;23;1435;-78
2023/08/14 02:07:44;;;;;;;5.30;2.03;;;;;;;;;;618203;23;1400;-78
2023/08/14 02:08:00;;;;;;;6.53;1.83;;;;;;;;;;615098;23;1435;-78
2023/08/14 02:08:16;;;;;;;6.60;1.77;;;;;;;;;;615588;23;1408;-77
2023/08/14 02:08:38;;;;;;;4.82;1.80;;;;;;;;;;618377;23;1455;-78
2023/08/14 02:08:59;;;;;;;3.50;1.65;;;;;;;;;;615760;23;1389;-78
2023/08/14 02:09:15;;;;;;;4.22;1.80;;;;;;;;;;613059;23;1278;-78
2023/08/14 02:09:31;;;;;;;4.95;1.77;;;;;;;;;;618448;23;1523;-77
2023/08/14 02:09:47;;;;;;;3.83;1.60;;;;;;;;;;621920;23;1272;-79
2023/08/14 02:10:04;;;;;;;4.97;1.70;;;;;;;;;;621448;23;1356;-78
2023/08/14 02:10:20;;;;;;;4.95;1.70;;;;;;;;;;621436;23;1255;-77
2023/08/14 02:10:36;;;;;;;5.25;1.85;;;;;;;;;;621526;23;1342;-78
2023/08/14 02:10:52;;;;;;;6.43;1.90;;;;;;;;;;617911;23;1364;-77
2023/08/14 02:11:10;;;;;;;5.80;1.90;;;;;;;;;;618612;23;1469;-77
2023/08/14 02:11:26;;;;;;;3.63;1.83;;;;;;;;;;618435;23;1472;-77
2023/08/14 02:11:42;;;;;;;3.85;1.83;;;;;;;;;;618737;23;1308;-78
2023/08/14 02:11:59;;;;;;;5.70;1.95;;;;;;;;;;617931;23;1373;-78
2023/08/14 02:12:15;;;;;;;5.07;1.90;;;;;;;;;;618400;23;1134;-77
2023/08/14 02:12:31;;;;;;;3.97;1.90;;;;;;;;;;618436;23;1319;-78
2023/08/14 02:12:50;;;;;;;4.45;1.90;;;;;;;;;;621010;23;1159;-77
2023/08/14 02:13:06;;;;;;;3.45;1.77;;;;;;;;;;620633;23;1363;-78
2023/08/14 02:13:25;;;;;;;2.95;1.60;;;;;;;;;;621226;23;1356;-78
2023/08/14 02:13:43;;;;;;;3.90;1.70;;;;;;;;;;618316;23;1499;-78
2023/08/14 02:13:59;;;;;;;4.63;1.90;;;;;;;;;;612433;23;1296;-78
2023/08/14 02:14:15;;;;;;;3.83;1.90;;;;;;;;;;618609;23;1563;-78
2023/08/14 02:14:31;;;;;;;4.93;2.00;;;;;;;;;;621834;23;1431;-77
2023/08/14 02:14:47;;;;;;;5.47;2.10;;;;;;;;;;621653;23;1249;-77
2023/08/14 02:15:03;;;;;;;4.63;2.00;;;;;;;;;;618328;23;1402;-77
2023/08/14 02:15:22;;;;;;;6.05;2.08;;;;;;;;;;618360;23;1418;-78
2023/08/14 02:15:38;;;;;;;5.88;1.98;;;;;;;;;;624445;23;1319;-78
2023/08/14 02:16:14;;;;;;;5.45;1.90;;;;;;;;;;618865;23;1244;-77
2023/08/14 02:16:36;;;;;;;5.00;1.80;;;;;;;;;;618405;23;1306;-78
2023/08/14 02:16:53;;;;;;;6.70;2.10;;;;;;;;;;620596;23;1558;-77
2023/08/14 02:17:08;;;;;;;6.05;1.98;;;;;;;;;;618926;23;1299;-77
2023/08/14 02:17:27;;;;;;;4.75;1.70;;;;;;;;;;615528;23;1136;-78
2023/08/14 02:17:45;;;;;;;5.22;1.63;;;;;;;;;;615777;23;1275;-78
2023/08/14 02:18:01;;;;;;;4.65;1.70;;;;;;;;;;618474;23;1435;-78
2023/08/14 02:18:17;;;;;;;3.80;1.80;;;;;;;;;;618326;23;1120;-77